Reddick, Illinois
Current Conditions -  °F | °C
As of 9:55 PM on Thursday 27 Nov 2014 (Local Time) from KPNT Reporting Station
Clear Clear  
Wind Chill:   Ceiling: Unl
Heat Index: 15°   Visibility: 10mi
Dew Point: 10°   Wind: 5mph
Humidity: 80%   Direction: 280°W
Pressure: 30.43"   Gusts: NA
Location:  41.1°N, 88.25°W
Report Text: KPNT 280355Z AUTO 28004KT 10SM CLR M10/M12 A3043 RMK AO2 T10961125
Loading
Personal Weather Stations






























Interactive Weather Map New forecast layout! Learn more

10-Day Weather Forecast

Advertisements
Track Severe Weather on mobile